Time;durP1;ratioP1;P1;durP2;ratioP2;P2;SDS_P1;SDS_P2;PMS_P1;PMS_P2;Temp;Humidity;BMP_temperature;BMP_pressure;BME280_temperature;BME280_humidity;BME280_pressure;Samples;Min_cycle;Max_cycle;Signal;HPM_P1;HPM_P2
2022/07/16 00:01:33;;;;;;;;;;;;;;;17.76;71.91;96194.41;6153907;28;19922;-65
2022/07/16 00:04:36;;;;;;;;;;;;;;;17.72;71.72;96201.88;6153499;28;19926;-65
2022/07/16 00:07:40;;;;;;;;;;;;;;;17.76;71.87;96210.38;6153481;28;19922;-65
2022/07/16 00:10:43;;;;;;;;;;;;;;;17.80;71.82;96214.38;6153206;28;20408;-65
2022/07/16 00:13:48;;;;;;;;;;;;;;;17.81;71.59;96213.41;6153119;28;19922;-65
2022/07/16 00:16:49;;;;;;;;;;;;;;;17.81;71.24;96213.41;6152815;28;20403;-65
2022/07/16 00:19:55;;;;;;;;;;;;;;;17.81;71.19;96215.25;6152017;29;19926;-66
2022/07/16 00:22:56;;;;;;;;;;;;;;;17.77;71.36;96211.19;6153087;28;20025;-65
2022/07/16 00:26:01;;;;;;;;;;;;;;;17.74;71.39;96220.31;6153155;28;19927;-65
2022/07/16 00:29:05;;;;;;;;;;;;;;;17.71;70.98;96210.84;6152870;28;20296;-65
2022/07/16 00:32:06;;;;;;;;;;;;;;;17.70;71.15;96208.34;6153048;28;19928;-65
2022/07/16 00:35:13;;;;;;;;;;;;;;;17.64;71.31;96209.00;6152873;28;19934;-65
2022/07/16 00:38:14;;;;;;;;;;;;;;;17.60;71.21;96207.63;6152133;28;19949;-65
2022/07/16 00:41:17;;;;;;;;;;;;;;;17.63;71.29;96210.78;6151531;28;19930;-64
2022/07/16 00:44:23;;;;;;;;;;;;;;;17.59;71.10;96208.63;6152737;28;19933;-66
2022/07/16 00:47:24;;;;;;;;;;;;;;;17.62;71.13;96203.81;6152594;28;19926;-64
2022/07/16 00:50:27;;;;;;;;;;;;;;;17.67;71.03;96206.00;6152399;28;19927;-65
2022/07/16 00:53:33;;;;;;;;;;;;;;;17.70;70.79;96197.72;6152292;28;19927;-65
2022/07/16 00:56:37;;;;;;;;;;;;;;;17.75;70.73;96198.06;6151955;28;20400;-65
2022/07/16 00:59:43;;;;;;;;;;;;;;;17.80;70.48;96194.94;6152354;28;19927;-65
2022/07/16 01:02:44;;;;;;;;;;;;;;;17.86;70.19;96192.47;6152417;28;19922;-65
2022/07/16 01:05:47;;;;;;;;;;;;;;;17.89;70.26;96192.16;6152240;28;20424;-66
2022/07/16 01:08:53;;;;;;;;;;;;;;;17.94;70.21;96189.81;6152153;28;19923;-64
2022/07/16 01:11:54;;;;;;;;;;;;;;;18.03;69.84;96181.84;6151908;28;19938;-64
2022/07/16 01:14:58;;;;;;;;;;;;;;;18.13;69.58;96195.88;6151979;28;19930;-65
2022/07/16 01:17:59;;;;;;;;;;;;;;;18.22;69.43;96189.56;6151621;28;19926;-65
2022/07/16 01:21:01;;;;;;;;;;;;;;;18.31;69.13;96187.75;6151836;29;19926;-64
2022/07/16 01:24:02;;;;;;;;;;;;;;;18.36;69.22;96178.25;6151319;28;20077;-65
2022/07/16 01:27:03;;;;;;;;;;;;;;;18.50;68.68;96184.78;6151624;28;20460;-65
2022/07/16 01:30:08;;;;;;;;;;;;;;;18.61;68.73;96188.94;6151497;28;19926;-65
2022/07/16 01:33:26;;;;;;;;;;;;;;;18.62;68.10;96183.44;6151457;28;20416;-64
2022/07/16 01:36:27;;;;;;;;;;;;;;;18.70;68.14;96187.13;6151228;28;20305;-65
2022/07/16 01:39:31;;;;;;;;;;;;;;;18.77;67.51;96191.66;6151312;28;19957;-65
2022/07/16 01:42:37;;;;;;;;;;;;;;;18.76;67.83;96187.28;6151262;28;19993;-65
2022/07/16 01:45:43;;;;;;;;;;;;;;;18.85;67.72;96188.13;6151309;28;19927;-65
2022/07/16 01:48:44;;;;;;;;;;;;;;;18.99;66.88;96181.28;6150930;28;19933;-65
2022/07/16 01:51:47;;;;;;;;;;;;;;;18.96;67.08;96179.78;6150994;28;19926;-66
2022/07/16 01:54:52;;;;;;;;;;;;;;;19.06;66.82;96176.97;6150541;28;19930;-65
2022/07/16 01:57:56;;;;;;;;;;;;;;;19.01;66.82;96187.28;6165401;28;19926;-65
2022/07/16 02:00:59;;;;;;;;;;;;;;;19.07;66.50;96191.94;6150967;28;20316;-65
2022/07/16 02:04:03;;;;;;;;;;;;;;;19.11;66.40;96195.09;6150718;28;19923;-66
2022/07/16 02:07:07;;;;;;;;;;;;;;;19.15;66.11;96199.09;6150957;28;19927;-65
2022/07/16 02:10:10;;;;;;;;;;;;;;;19.18;66.32;96196.09;6150763;28;19926;-65
2022/07/16 02:13:15;;;;;;;;;;;;;;;19.22;65.96;96200.94;6150457;28;19931;-65
2022/07/16 02:16:38;;;;;;;;;;;;;;;19.26;65.69;96196.91;6149072;29;19958;-65
2022/07/16 02:19:39;;;;;;;;;;;;;;;19.36;65.66;96201.22;6150542;28;19930;-65
2022/07/16 02:22:40;;;;;;;;;;;;;;;19.38;65.68;96201.88;6150175;28;19981;-65
2022/07/16 02:25:42;;;;;;;;;;;;;;;19.47;65.58;96204.34;6150338;28;19926;-65
2022/07/16 02:28:43;;;;;;;;;;;;;;;19.56;65.12;96201.66;6150404;28;19926;-65
2022/07/16 02:31:49;;;;;;;;;;;;;;;19.64;65.03;96197.13;6150121;28;19927;-65
2022/07/16 02:34:53;;;;;;;;;;;;;;;19.71;64.71;96200.81;6149966;29;19926;-65
2022/07/16 02:37:56;;;;;;;;;;;;;;;19.76;64.12;96196.78;6149978;28;19931;-65
2022/07/16 02:40:59;;;;;;;;;;;;;;;19.85;64.26;96206.44;6150042;28;19933;-65
2022/07/16 02:44:04;;;;;;;;;;;;;;;19.95;63.83;96201.72;6150058;28;20400;-66
2022/07/16 02:47:09;;;;;;;;;;;;;;;19.95;63.30;96212.38;6149865;28;19927;-66
2022/07/16 02:50:13;;;;;;;;;;;;;;;19.96;63.45;96214.06;6149731;28;19948;-66
2022/07/16 02:53:17;;;;;;;;;;;;;;;20.09;62.51;96210.81;6149760;29;19926;-65
2022/07/16 02:56:21;;;;;;;;;;;;;;;20.03;62.67;96220.38;6149399;28;19926;-65
2022/07/16 02:59:22;;;;;;;;;;;;;;;20.09;62.51;96229.53;6149584;28;19937;-65
2022/07/16 03:02:25;;;;;;;;;;;;;;;20.09;62.56;96226.84;6149674;28;20392;-66
2022/07/16 03:05:29;;;;;;;;;;;;;;;20.16;62.21;96225.97;6148943;28;20348;-66
2022/07/16 03:08:30;;;;;;;;;;;;;;;20.23;61.90;96230.63;6149300;28;20410;-64
2022/07/16 03:11:36;;;;;;;;;;;;;;;20.32;60.93;96222.38;6149131;29;20300;-65
2022/07/16 03:14:40;;;;;;;;;;;;;;;20.33;60.76;96225.91;6149482;28;19930;-65
2022/07/16 03:17:44;;;;;;;;;;;;;;;20.35;60.46;96221.19;6149112;29;19927;-64
2022/07/16 03:20:48;;;;;;;;;;;;;;;20.37;60.51;96229.88;6149484;28;19962;-65
2022/07/16 03:23:49;;;;;;;;;;;;;;;20.35;60.25;96235.41;6148830;28;19953;-66
2022/07/16 03:26:55;;;;;;;;;;;;;;;20.41;60.19;96228.53;6149063;28;19930;-65
2022/07/16 03:29:56;;;;;;;;;;;;;;;20.45;59.90;96229.00;6147889;29;20024;-64
2022/07/16 03:32:57;;;;;;;;;;;;;;;20.44;59.75;96217.47;6149279;28;19948;-65
2022/07/16 03:36:00;;;;;;;;;;;;;;;20.47;59.80;96217.13;6149401;28;19934;-65
2022/07/16 03:39:04;;;;;;;;;;;;;;;20.58;59.50;96218.56;6147911;28;19926;-65
2022/07/16 03:42:05;;;;;;;;;;;;;;;20.57;59.39;96214.22;6148929;29;19929;-65
2022/07/16 03:45:09;;;;;;;;;;;;;;;20.73;59.21;96221.31;6148812;28;20305;-65
2022/07/16 03:48:15;;;;;;;;;;;;;;;20.82;59.28;96225.59;6149292;28;19932;-65
2022/07/16 03:51:22;;;;;;;;;;;;;;;20.84;58.61;96236.94;6148590;28;19926;-66
2022/07/16 03:54:25;;;;;;;;;;;;;;;20.97;57.66;96247.03;6148561;28;19926;-65
2022/07/16 03:57:31;;;;;;;;;;;;;;;20.97;57.53;96255.88;6148418;28;19926;-64
2022/07/16 04:00:32;;;;;;;;;;;;;;;21.20;55.95;96249.66;6148657;29;19926;-65
2022/07/16 04:03:33;;;;;;;;;;;;;;;21.29;55.95;96253.94;6148339;28;19929;-65
2022/07/16 04:06:39;;;;;;;;;;;;;;;21.66;55.07;96244.25;6148397;28;19927;-65
2022/07/16 04:09:40;;;;;;;;;;;;;;;22.03;54.06;96255.88;6147235;29;20297;-66
2022/07/16 04:12:43;;;;;;;;;;;;;;;22.31;52.38;96264.09;6148128;28;19933;-65
2022/07/16 04:15:44;;;;;;;;;;;;;;;22.19;52.82;96266.41;6150479;28;19933;-66
2022/07/16 04:18:45;;;;;;;;;;;;;;;22.50;51.94;96265.31;6153093;29;19934;-65
2022/07/16 04:21:51;;;;;;;;;;;;;;;22.80;51.51;96266.91;6152989;28;19922;-65
2022/07/16 04:24:54;;;;;;;;;;;;;;;23.27;50.84;96265.50;6153236;28;19930;-66
2022/07/16 04:27:58;;;;;;;;;;;;;;;23.70;50.09;96261.91;6152870;28;19922;-65
2022/07/16 04:31:04;;;;;;;;;;;;;;;24.05;49.50;96260.06;6152789;28;20377;-65
2022/07/16 04:34:10;;;;;;;;;;;;;;;24.33;48.59;96264.53;6152948;28;20304;-65
2022/07/16 04:37:13;;;;;;;;;;;;;;;24.64;47.28;96278.34;6152575;28;19926;-66
2022/07/16 04:40:15;;;;;;;;;;;;;;;24.68;46.74;96267.16;6152544;28;20415;-65
2022/07/16 04:43:21;;;;;;;;;;;;;;;24.68;46.02;96272.53;6152365;28;19926;-67
2022/07/16 04:46:25;;;;;;;;;;;;;;;24.93;45.61;96265.56;6152185;29;19931;-65
2022/07/16 04:49:30;;;;;;;;;;;;;;;26.79;41.67;96268.00;6152246;28;19923;-66
2022/07/16 04:52:34;;;;;;;;;;;;;;;29.30;37.88;96275.69;6152327;28;19926;-66
2022/07/16 04:55:37;;;;;;;;;;;;;;;31.32;34.64;96293.09;6152119;28;19922;-65
2022/07/16 04:58:44;;;;;;;;;;;;;;;33.11;31.48;96292.16;6152260;28;19942;-65
2022/07/16 05:01:48;;;;;;;;;;;;;;;35.05;29.59;96300.91;6151962;28;19922;-65
2022/07/16 05:04:51;;;;;;;;;;;;;;;37.50;26.47;96308.72;6151757;28;20400;-65
2022/07/16 05:07:55;;;;;;;;;;;;;;;39.20;24.29;96305.91;6151421;28;19926;-65
2022/07/16 05:10:56;;;;;;;;;;;;;;;40.21;22.56;96301.91;6151770;28;19923;-66
2022/07/16 05:14:01;;;;;;;;;;;;;;;40.91;22.09;96308.25;6151860;28;19926;-65
2022/07/16 05:17:02;;;;;;;;;;;;;;;41.82;20.65;96305.41;6151769;28;20312;-65
2022/07/16 05:20:04;;;;;;;;;;;;;;;41.63;19.95;96313.06;6151087;28;19933;-66
2022/07/16 05:23:06;;;;;;;;;;;;;;;38.87;21.96;96306.91;6150641;28;19930;-65
2022/07/16 05:26:10;;;;;;;;;;;;;;;39.15;22.89;96314.22;6151055;28;19927;-66
2022/07/16 05:29:16;;;;;;;;;;;;;;;37.53;23.46;96310.09;6150856;28;19927;-66
2022/07/16 05:32:17;;;;;;;;;;;;;;;35.64;25.83;96300.50;6151339;28;19927;-65
2022/07/16 05:35:20;;;;;;;;;;;;;;;33.77;27.58;96300.16;6151465;28;19926;-66
2022/07/16 05:38:27;;;;;;;;;;;;;;;32.45;29.07;96294.88;6151568;28;19926;-66
2022/07/16 05:41:31;;;;;;;;;;;;;;;32.49;29.00;96290.59;6151346;28;19926;-67
2022/07/16 05:44:35;;;;;;;;;;;;;;;32.50;29.00;96297.72;6150892;28;19926;-65
2022/07/16 05:47:39;;;;;;;;;;;;;;;34.52;27.09;96305.59;6151315;28;20373;-65
2022/07/16 05:50:40;;;;;;;;;;;;;;;37.64;22.60;96302.59;6151307;28;19931;-65
2022/07/16 05:53:44;;;;;;;;;;;;;;;37.93;22.69;96306.19;6150687;28;20389;-66
2022/07/16 05:56:45;;;;;;;;;;;;;;;36.28;24.82;96320.19;6150716;29;19934;-66
2022/07/16 05:59:49;;;;;;;;;;;;;;;33.87;27.65;96308.44;6150266;29;20352;-66
2022/07/16 06:02:52;;;;;;;;;;;;;;;32.16;29.56;96302.41;6150403;28;19934;-65
2022/07/16 06:05:54;;;;;;;;;;;;;;;33.06;28.94;96311.19;6150530;28;19931;-65
2022/07/16 06:08:57;;;;;;;;;;;;;;;32.87;28.66;96307.97;6150343;28;20381;-65
2022/07/16 06:12:00;;;;;;;;;;;;;;;33.13;28.15;96316.47;6150433;28;19927;-66
2022/07/16 06:15:04;;;;;;;;;;;;;;;33.80;26.82;96305.13;6150406;29;20021;-66
2022/07/16 06:18:10;;;;;;;;;;;;;;;32.17;28.55;96315.75;6150138;28;19926;-66
2022/07/16 06:21:14;;;;;;;;;;;;;;;33.60;27.51;96315.84;6150135;29;20002;-67
2022/07/16 06:24:18;;;;;;;;;;;;;;;36.65;24.44;96328.03;6150105;28;19927;-65
2022/07/16 06:27:20;;;;;;;;;;;;;;;39.78;20.41;96346.13;6150412;28;19927;-66
2022/07/16 06:30:21;;;;;;;;;;;;;;;41.36;19.11;96352.59;6149826;28;19926;-66
2022/07/16 06:33:24;;;;;;;;;;;;;;;42.34;17.41;96350.00;6149750;28;20307;-65
2022/07/16 06:36:29;;;;;;;;;;;;;;;43.50;17.02;96362.81;6149902;28;19927;-65
2022/07/16 06:39:33;;;;;;;;;;;;;;;44.95;15.91;96366.88;6148882;28;19932;-66
2022/07/16 06:42:37;;;;;;;;;;;;;;;44.72;15.64;96368.25;6149901;28;19926;-66
2022/07/16 06:45:40;;;;;;;;;;;;;;;41.30;18.23;96365.69;6150013;28;19927;-66
2022/07/16 06:48:41;;;;;;;;;;;;;;;37.11;21.97;96354.47;6149710;28;20454;-65
2022/07/16 06:51:47;;;;;;;;;;;;;;;35.83;23.93;96360.16;6149454;28;19927;-65
2022/07/16 06:54:48;;;;;;;;;;;;;;;36.29;23.79;96365.63;6149458;28;19927;-65
2022/07/16 06:57:49;;;;;;;;;;;;;;;37.62;22.09;96359.69;6149183;28;19927;-65
2022/07/16 07:00:51;;;;;;;;;;;;;;;39.93;19.43;96361.59;6149350;28;19927;-65
2022/07/16 07:04:10;;;;;;;;;;;;;;;41.54;17.58;96375.72;6149258;29;19946;-65
2022/07/16 07:07:12;;;;;;;;;;;;;;;42.79;16.89;96377.59;6148881;28;20408;-65
2022/07/16 07:10:15;;;;;;;;;;;;;;;44.07;15.86;96378.50;6148256;28;19929;-65
2022/07/16 07:13:16;;;;;;;;;;;;;;;42.45;16.73;96378.22;6149223;29;20413;-64
2022/07/16 07:16:22;;;;;;;;;;;;;;;41.41;17.83;96369.03;6149094;28;20400;-65
2022/07/16 07:19:23;;;;;;;;;;;;;;;40.56;18.35;96366.56;6148938;28;19927;-66
2022/07/16 07:22:28;;;;;;;;;;;;;;;37.38;21.33;96349.41;6163762;28;19974;-65
2022/07/16 07:25:31;;;;;;;;;;;;;;;38.21;20.65;96355.16;6148797;28;20030;-65
2022/07/16 07:28:35;;;;;;;;;;;;;;;40.27;18.55;96360.50;6148827;28;20269;-66
2022/07/16 07:31:41;;;;;;;;;;;;;;;41.45;17.69;96361.78;6149003;28;20381;-65
2022/07/16 07:34:44;;;;;;;;;;;;;;;42.87;16.59;96361.34;6149085;28;19966;-65
2022/07/16 07:37:48;;;;;;;;;;;;;;;43.79;15.75;96364.16;6148752;28;19927;-66
2022/07/16 07:40:54;;;;;;;;;;;;;;;44.75;14.70;96373.19;6149058;28;19930;-65
2022/07/16 07:43:55;;;;;;;;;;;;;;;44.40;15.23;96373.28;6148840;28;20028;-66
2022/07/16 07:46:58;;;;;;;;;;;;;;;40.55;18.48;96358.63;6148543;28;19927;-65
2022/07/16 07:50:04;;;;;;;;;;;;;;;39.05;19.68;96352.91;6149968;28;19926;-65
2022/07/16 07:53:09;;;;;;;;;;;;;;;40.78;18.49;96362.34;6153404;28;19926;-65
2022/07/16 07:56:10;;;;;;;;;;;;;;;42.78;16.68;96375.97;6153145;28;19949;-66
2022/07/16 07:59:11;;;;;;;;;;;;;;;44.64;14.51;96366.34;6153526;28;20405;-66
2022/07/16 08:02:13;;;;;;;;;;;;;;;44.89;14.52;96373.75;6153145;28;19927;-65
2022/07/16 08:05:15;;;;;;;;;;;;;;;46.08;13.86;96376.47;6152808;28;20417;-65
2022/07/16 08:08:16;;;;;;;;;;;;;;;47.07;12.91;96375.56;6153176;28;19926;-66
2022/07/16 08:11:17;;;;;;;;;;;;;;;46.59;13.42;96371.53;6152994;28;19927;-65
2022/07/16 08:14:20;;;;;;;;;;;;;;;45.94;14.03;96373.16;6153266;28;19926;-66
2022/07/16 08:17:24;;;;;;;;;;;;;;;45.62;14.29;96389.41;6152981;28;19953;-65
2022/07/16 08:20:26;;;;;;;;;;;;;;;45.82;13.89;96391.38;6152677;28;19934;-65
2022/07/16 08:26:52;;;;;;;;;;;;;;;46.55;13.79;96384.53;6152702;28;20017;-65
2022/07/16 08:29:56;;;;;;;;;;;;;;;47.08;13.20;96388.34;6152657;28;19927;-65
2022/07/16 08:32:57;;;;;;;;;;;;;;;46.71;13.11;96374.38;6152041;28;20081;-65
2022/07/16 08:36:00;;;;;;;;;;;;;;;46.70;12.96;96378.31;6152357;29;20000;-65
2022/07/16 08:39:04;;;;;;;;;;;;;;;46.11;13.28;96375.78;6152672;28;19926;-65
2022/07/16 08:42:10;;;;;;;;;;;;;;;45.18;14.14;96380.50;6152365;28;19927;-65
2022/07/16 08:45:11;;;;;;;;;;;;;;;45.39;13.88;96378.59;6152510;28;20017;-64
2022/07/16 08:48:16;;;;;;;;;;;;;;;45.38;13.75;96379.75;6152395;28;19926;-64
2022/07/16 08:51:38;;;;;;;;;;;;;;;43.35;14.52;96380.72;6152309;29;20285;-65
2022/07/16 08:54:41;;;;;;;;;;;;;;;42.60;15.77;96374.22;6151791;28;20013;-65
2022/07/16 08:57:44;;;;;;;;;;;;;;;43.81;14.90;96378.50;6152184;28;19933;-65
2022/07/16 09:00:48;;;;;;;;;;;;;;;45.24;13.72;96384.72;6151995;28;19926;-66
2022/07/16 09:03:57;;;;;;;;;;;;;;;44.77;14.24;96376.44;6151356;29;19926;-65
2022/07/16 09:07:00;;;;;;;;;;;;;;;43.23;15.19;96378.59;6150787;29;19933;-65
2022/07/16 09:10:02;;;;;;;;;;;;;;;40.17;17.72;96362.28;6152049;29;20024;-65
2022/07/16 09:13:08;;;;;;;;;;;;;;;38.58;19.41;96357.25;6151865;28;20455;-65
2022/07/16 09:16:26;;;;;;;;;;;;;;;40.05;18.33;96353.66;6152183;28;19927;-65
2022/07/16 09:19:29;;;;;;;;;;;;;;;41.23;17.08;96363.34;6151519;28;19974;-65
2022/07/16 09:22:36;;;;;;;;;;;;;;;42.03;16.53;96371.25;6151764;28;19926;-65
2022/07/16 09:25:46;;;;;;;;;;;;;;;42.24;16.21;96360.47;6151649;28;20009;-65
2022/07/16 09:28:52;;;;;;;;;;;;;;;41.59;16.80;96362.59;6151437;28;19926;-64
2022/07/16 09:31:56;;;;;;;;;;;;;;;39.80;18.20;96373.38;6151426;28;19926;-65
2022/07/16 09:35:04;;;;;;;;;;;;;;;38.08;19.71;96367.63;6151069;28;19926;-65
2022/07/16 09:38:09;;;;;;;;;;;;;;;36.41;21.77;96366.19;6151000;28;19926;-66
2022/07/16 09:41:14;;;;;;;;;;;;;;;34.90;23.15;96371.91;6151441;28;19966;-66
2022/07/16 09:44:19;;;;;;;;;;;;;;;35.61;22.69;96361.22;6151285;28;20312;-65
2022/07/16 09:47:27;;;;;;;;;;;;;;;36.92;21.38;96368.81;6151555;28;19926;-65
2022/07/16 09:50:34;;;;;;;;;;;;;;;37.19;20.77;96373.91;6134258;29;20410;-65
2022/07/16 09:53:43;;;;;;;;;;;;;;;36.16;21.76;96362.38;6150545;28;20415;-66
2022/07/16 09:57:03;;;;;;;;;;;;;;;36.63;21.70;96376.84;6150959;28;19957;-65
2022/07/16 10:00:11;;;;;;;;;;;;;;;36.31;21.89;96377.97;6150903;28;19948;-66
2022/07/16 10:03:12;;;;;;;;;;;;;;;36.63;20.93;96383.16;6151217;28;19932;-65
2022/07/16 10:06:16;;;;;;;;;;;;;;;36.60;21.08;96369.16;6150846;28;20317;-65
2022/07/16 10:09:17;;;;;;;;;;;;;;;36.80;21.00;96376.50;6150494;28;20001;-65
2022/07/16 10:12:24;;;;;;;;;;;;;;;37.32;20.41;96361.50;6150676;28;20025;-65
2022/07/16 10:15:26;;;;;;;;;;;;;;;37.99;19.91;96363.84;6150256;28;19926;-65
2022/07/16 10:18:37;;;;;;;;;;;;;;;37.76;19.42;96382.66;6149253;28;20392;-65
2022/07/16 10:21:41;;;;;;;;;;;;;;;37.19;20.51;96367.63;6150359;29;20292;-65
2022/07/16 10:24:53;;;;;;;;;;;;;;;37.16;20.65;96365.44;6150267;28;20443;-65
2022/07/16 10:27:58;;;;;;;;;;;;;;;37.33;21.01;96371.38;6150141;28;20029;-65
2022/07/16 10:31:19;;;;;;;;;;;;;;;37.50;20.86;96374.59;6150150;28;19930;-65
2022/07/16 10:34:33;;;;;;;;;;;;;;;37.96;20.44;96387.22;6149747;28;19926;-65
2022/07/16 10:37:39;;;;;;;;;;;;;;;37.87;20.38;96384.22;6150150;28;20408;-65
2022/07/16 10:40:43;;;;;;;;;;;;;;;37.10;20.58;96378.34;6150073;28;19977;-65
2022/07/16 10:44:04;;;;;;;;;;;;;;;36.90;20.76;96392.13;6149787;28;19974;-66
2022/07/16 10:47:06;;;;;;;;;;;;;;;36.89;20.61;96391.31;6149593;28;20012;-65
2022/07/16 10:50:17;;;;;;;;;;;;;;;36.91;20.97;96388.28;6149570;28;19926;-65
2022/07/16 10:53:18;;;;;;;;;;;;;;;37.14;20.60;96386.84;6149471;28;19927;-65
2022/07/16 10:56:34;;;;;;;;;;;;;;;37.18;20.82;96387.94;6149010;28;20339;-64
2022/07/16 10:59:40;;;;;;;;;;;;;;;36.72;20.42;96391.63;6149579;28;20388;-66
2022/07/16 11:02:47;;;;;;;;;;;;;;;36.00;21.64;96374.41;6149600;28;19932;-65
2022/07/16 11:05:54;;;;;;;;;;;;;;;35.75;21.12;96378.78;6149147;28;20308;-66
2022/07/16 11:09:00;;;;;;;;;;;;;;;35.41;21.73;96377.56;6149559;28;20020;-65
2022/07/16 11:12:08;;;;;;;;;;;;;;;35.23;21.75;96382.47;6149400;29;19926;-67
2022/07/16 11:15:14;;;;;;;;;;;;;;;34.56;22.76;96380.47;6149151;28;19930;-65
2022/07/16 11:18:18;;;;;;;;;;;;;;;34.42;22.82;96393.75;6149087;29;20069;-65
2022/07/16 11:21:25;;;;;;;;;;;;;;;34.95;22.65;96389.16;6149031;28;20326;-65
2022/07/16 11:24:31;;;;;;;;;;;;;;;35.09;22.51;96392.25;6148828;28;19926;-65
2022/07/16 11:27:33;;;;;;;;;;;;;;;34.90;22.88;96388.31;6149319;28;19927;-65
2022/07/16 11:30:34;;;;;;;;;;;;;;;34.48;23.52;96391.88;6149000;28;19926;-65
2022/07/16 11:33:38;;;;;;;;;;;;;;;34.10;23.62;96391.06;6149113;28;19926;-66
2022/07/16 11:36:41;;;;;;;;;;;;;;;33.91;23.82;96385.94;6149441;28;19949;-65
2022/07/16 11:39:44;;;;;;;;;;;;;;;34.02;24.04;96388.78;6149364;28;19934;-65
2022/07/16 11:42:58;;;;;;;;;;;;;;;33.38;25.20;96384.91;6148986;28;20031;-66
2022/07/16 11:46:02;;;;;;;;;;;;;;;32.76;25.79;96393.38;6149002;28;19930;-65
2022/07/16 11:49:04;;;;;;;;;;;;;;;32.29;26.70;96407.38;6148928;28;19927;-66
2022/07/16 11:52:21;;;;;;;;;;;;;;;32.24;26.06;96399.13;6148758;28;19934;-65
2022/07/16 11:55:27;;;;;;;;;;;;;;;32.25;26.15;96392.63;6148830;28;19927;-66
2022/07/16 11:58:30;;;;;;;;;;;;;;;32.11;26.64;96389.41;6148634;28;19938;-65
2022/07/16 12:01:37;;;;;;;;;;;;;;;32.38;25.24;96397.69;6149204;28;20396;-64
2022/07/16 12:04:39;;;;;;;;;;;;;;;31.86;26.25;96396.03;6148917;29;19961;-65
2022/07/16 12:07:44;;;;;;;;;;;;;;;31.58;26.67;96405.06;6148425;28;19933;-66
2022/07/16 12:10:56;;;;;;;;;;;;;;;31.67;26.75;96403.59;6148747;28;19926;-65
2022/07/16 12:14:02;;;;;;;;;;;;;;;31.89;26.89;96400.16;6148609;29;19926;-66
2022/07/16 12:17:03;;;;;;;;;;;;;;;31.43;27.29;96404.81;6148007;28;19926;-64
2022/07/16 12:20:09;;;;;;;;;;;;;;;31.16;27.71;96404.50;6148586;28;19933;-65
2022/07/16 12:23:15;;;;;;;;;;;;;;;31.20;27.50;96409.22;6148482;28;20322;-64
2022/07/16 12:26:33;;;;;;;;;;;;;;;31.33;27.71;96411.63;6148823;28;19986;-65
2022/07/16 12:29:37;;;;;;;;;;;;;;;31.51;27.40;96415.28;6148492;29;19933;-65
2022/07/16 12:32:50;;;;;;;;;;;;;;;31.57;27.45;96405.34;6147513;28;19926;-65
2022/07/16 12:35:57;;;;;;;;;;;;;;;31.48;27.76;96415.75;6148450;28;19933;-65
2022/07/16 12:39:02;;;;;;;;;;;;;;;31.42;27.88;96416.72;6151732;28;19926;-65
2022/07/16 12:42:04;;;;;;;;;;;;;;;31.33;27.70;96408.91;6152386;29;19926;-66
2022/07/16 12:45:05;;;;;;;;;;;;;;;31.13;27.82;96408.53;6151973;29;19982;-66
2022/07/16 12:48:06;;;;;;;;;;;;;;;30.75;28.33;96411.78;6152352;29;19926;-66
2022/07/16 12:51:12;;;;;;;;;;;;;;;30.45;28.54;96406.50;6152474;28;19922;-66
2022/07/16 12:54:14;;;;;;;;;;;;;;;30.38;29.15;96412.88;6152181;29;20364;-65
2022/07/16 13:00:39;;;;;;;;;;;;;;;29.94;30.16;96412.31;6152286;28;20250;-65
2022/07/16 13:03:40;;;;;;;;;;;;;;;29.81;29.61;96407.13;6151865;29;19933;-66
2022/07/16 13:06:44;;;;;;;;;;;;;;;29.50;30.13;96408.19;6151809;28;19926;-65
2022/07/16 13:09:50;;;;;;;;;;;;;;;29.37;30.05;96411.91;6151950;29;19932;-65
2022/07/16 13:12:56;;;;;;;;;;;;;;;29.02;30.35;96420.66;6152006;28;20021;-66
2022/07/16 13:16:02;;;;;;;;;;;;;;;28.77;30.53;96417.22;6151647;29;19977;-65
2022/07/16 13:19:03;;;;;;;;;;;;;;;28.50;31.36;96417.47;6150929;28;20304;-66
2022/07/16 13:22:07;;;;;;;;;;;;;;;28.37;31.63;96412.19;6151553;28;19927;-66
2022/07/16 13:25:08;;;;;;;;;;;;;;;28.33;32.02;96427.19;6151531;28;20411;-65
2022/07/16 13:28:12;;;;;;;;;;;;;;;28.21;31.67;96427.91;6151517;28;19930;-65
2022/07/16 13:31:18;;;;;;;;;;;;;;;28.12;31.39;96421.13;6151431;28;19927;-65
2022/07/16 13:34:22;;;;;;;;;;;;;;;28.20;31.56;96426.28;6151244;29;20295;-65
2022/07/16 13:37:25;;;;;;;;;;;;;;;28.39;31.70;96429.00;6150774;28;19926;-65
2022/07/16 13:40:27;;;;;;;;;;;;;;;28.39;31.46;96432.56;6151007;28;20344;-65
2022/07/16 13:43:33;;;;;;;;;;;;;;;28.62;31.22;96431.09;6151119;28;19930;-65
2022/07/16 13:46:40;;;;;;;;;;;;;;;28.42;31.88;96439.41;6149983;29;20412;-65
2022/07/16 13:49:41;;;;;;;;;;;;;;;28.12;32.74;96436.53;6150401;28;19934;-66
2022/07/16 13:52:45;;;;;;;;;;;;;;;27.79;33.18;96437.63;6150959;28;19927;-66
2022/07/16 13:55:50;;;;;;;;;;;;;;;27.65;33.80;96442.25;6150669;28;19927;-66
2022/07/16 13:58:52;;;;;;;;;;;;;;;27.68;34.08;96441.81;6150892;28;20001;-65
2022/07/16 14:01:55;;;;;;;;;;;;;;;27.73;34.69;96447.41;6150693;28;19926;-65
2022/07/16 14:05:01;;;;;;;;;;;;;;;27.63;34.48;96449.75;6150965;28;19930;-65
2022/07/16 14:08:04;;;;;;;;;;;;;;;27.62;34.66;96448.09;6150734;28;19933;-64
2022/07/16 14:11:05;;;;;;;;;;;;;;;27.52;34.78;96442.34;6150736;28;19927;-65
2022/07/16 14:14:11;;;;;;;;;;;;;;;27.45;34.82;96455.06;6150126;28;20014;-65
2022/07/16 14:17:15;;;;;;;;;;;;;;;27.48;35.03;96454.63;6149733;28;20359;-66
2022/07/16 14:20:18;;;;;;;;;;;;;;;27.41;35.61;96464.66;6150241;28;19926;-66
2022/07/16 14:23:24;;;;;;;;;;;;;;;27.42;35.91;96474.41;6150135;28;19927;-65
2022/07/16 14:26:27;;;;;;;;;;;;;;;27.47;35.97;96471.88;6149444;28;19927;-66
2022/07/16 14:29:31;;;;;;;;;;;;;;;27.54;36.20;96478.06;6149684;28;19926;-66
2022/07/16 14:32:32;;;;;;;;;;;;;;;27.71;35.56;96473.84;6149925;28;19931;-65
2022/07/16 14:35:35;;;;;;;;;;;;;;;27.74;35.52;96478.81;6149569;28;20417;-65
2022/07/16 14:38:39;;;;;;;;;;;;;;;27.69;35.46;96481.31;6149980;28;19934;-65
2022/07/16 14:41:43;;;;;;;;;;;;;;;27.60;35.70;96482.63;6149890;28;19926;-65
2022/07/16 14:44:44;;;;;;;;;;;;;;;27.68;35.43;96484.22;6149373;28;19927;-66
2022/07/16 14:47:49;;;;;;;;;;;;;;;27.47;35.73;96482.69;6149606;28;19969;-66
2022/07/16 14:50:51;;;;;;;;;;;;;;;27.17;36.32;96477.81;6149210;28;20003;-65
2022/07/16 14:53:57;;;;;;;;;;;;;;;26.80;36.67;96488.28;6149437;28;19926;-65
2022/07/16 14:57:02;;;;;;;;;;;;;;;26.79;37.06;96493.91;6149585;28;19930;-66
2022/07/16 15:00:07;;;;;;;;;;;;;;;26.59;37.17;96488.53;6148840;28;19926;-66
2022/07/16 15:03:10;;;;;;;;;;;;;;;26.36;37.83;96487.09;6149085;28;19949;-66
2022/07/16 15:06:11;;;;;;;;;;;;;;;26.17;38.58;96485.22;6149301;29;19927;-66
2022/07/16 15:09:12;;;;;;;;;;;;;;;25.97;39.13;96486.03;6149548;28;19937;-65
2022/07/16 15:12:18;;;;;;;;;;;;;;;25.80;39.41;96476.66;6149550;28;19927;-65
2022/07/16 15:15:23;;;;;;;;;;;;;;;25.67;39.37;96487.38;6149223;28;19938;-66
2022/07/16 15:18:24;;;;;;;;;;;;;;;25.40;39.83;96484.63;6148731;28;20005;-65
2022/07/16 15:21:27;;;;;;;;;;;;;;;25.49;40.17;96487.97;6149366;28;19933;-65
2022/07/16 15:24:32;;;;;;;;;;;;;;;25.38;40.15;96494.78;6149330;28;19927;-66
2022/07/16 15:27:33;;;;;;;;;;;;;;;25.03;40.62;96489.41;6149067;28;19949;-65
2022/07/16 15:30:35;;;;;;;;;;;;;;;24.84;41.00;96493.66;6147517;29;20009;-65
2022/07/16 15:33:43;;;;;;;;;;;;;;;24.71;41.63;96493.56;6149117;28;20269;-65
2022/07/16 15:36:49;;;;;;;;;;;;;;;24.80;41.51;96503.19;6148874;28;19926;-65
2022/07/16 15:39:50;;;;;;;;;;;;;;;24.61;41.89;96507.38;6148803;28;19933;-66
2022/07/16 15:42:53;;;;;;;;;;;;;;;24.50;42.33;96513.31;6148881;28;19933;-66
2022/07/16 15:45:59;;;;;;;;;;;;;;;24.18;42.78;96514.69;6148617;28;19927;-67
2022/07/16 15:49:03;;;;;;;;;;;;;;;23.96;43.33;96517.38;6147824;28;19930;-66
2022/07/16 15:52:06;;;;;;;;;;;;;;;23.70;43.94;96523.31;6148631;28;20029;-66
2022/07/16 15:55:10;;;;;;;;;;;;;;;23.56;44.32;96524.16;6148925;28;19926;-66
2022/07/16 15:58:11;;;;;;;;;;;;;;;23.42;44.47;96525.03;6148147;28;19926;-68
2022/07/16 16:01:13;;;;;;;;;;;;;;;23.28;45.04;96535.59;6147876;28;19930;-67
2022/07/16 16:04:17;;;;;;;;;;;;;;;23.20;45.48;96543.75;6148865;28;19922;-67
2022/07/16 16:07:23;;;;;;;;;;;;;;;23.09;45.71;96544.22;6148674;28;19930;-69